Hlavní strana
METAR-TAF:

METAR-TAF

Letiště :

Metropolis Municipal Airport

Metropolis, Illinois, Spojené státy americké

zeměpisná šířka: 37-11-09N, zeměpisná délka: 088-45-02W, výška: 117 m

Aktuální stav počasí

Zpráva byla vytvořena před 24 minutami, v 18:15 UTC
Severní vítr 6 kt s nárazy do 15 kt
Teplota 5°C
Vlhkost vzduchu 75%
Tlak 1022 hPa
Viditelnost: 16.1 km
Polojasno ve výšce 6500 ft
Zataženo ve výšce 9500 ft

METAR: KM30 181815Z AUTO 36006G15KT 10SM SCT065 OVC095 05/01 A3018 RMK AO2 T00540012

Čas: 12:39 (18:39 UTC)


TAF: chybějící

Stav a předpovědi počasí z více než 4 000 letišť (zprávy METAR a TAF).

Červené a žluté tečky na mapě představují dostupné meteorologické stanice.

Když kurzor umístíte na tečku, zobrazí se název stanice.

Pak kliknutím zobrazíte stav a předpověď počasí.

Chcete-li změnit mapu, kliknutím na zelené tlačítko se znaménkem +mapu přiblížíte, kliknutím na zelené tlačítko se znaménkem – mapu oddálíte a kliknutím na zelené šipky přejdete na sousední mapy.


METAR-TAF: